createdAt,value
2018-08-04T00:02:10.296Z,14.20
2018-08-04T00:04:39.276Z,14.50
2018-08-04T00:07:08.226Z,15.33
2018-08-04T00:09:36.879Z,13.90
2018-08-04T00:12:05.531Z,14.87
2018-08-04T00:14:34.216Z,14.20
2018-08-04T00:17:02.990Z,13.97
2018-08-04T00:19:31.691Z,14.70
2018-08-04T00:22:00.322Z,13.90
2018-08-04T00:24:28.959Z,13.23
2018-08-04T00:26:58.441Z,13.53
2018-08-04T00:29:27.018Z,13.30
2018-08-04T00:31:55.941Z,13.27
2018-08-04T00:34:24.582Z,13.30
2018-08-04T00:36:53.220Z,13.73
2018-08-04T00:39:21.879Z,13.40
2018-08-04T00:41:50.534Z,13.03
2018-08-04T00:44:19.159Z,13.20
2018-08-04T00:46:47.802Z,12.37
2018-08-04T00:49:16.434Z,12.47
2018-08-04T00:51:45.056Z,13.50
2018-08-04T00:54:13.727Z,12.63
2018-08-04T00:56:42.377Z,12.93
2018-08-04T00:59:11.014Z,13.70
2018-08-04T01:01:40.000Z,13.43
2018-08-04T01:04:08.658Z,13.43
2018-08-04T01:06:37.649Z,14.70
2018-08-04T01:09:08.240Z,14.80
2018-08-04T01:11:36.934Z,13.70
2018-08-04T01:14:05.606Z,13.90
2018-08-04T01:16:34.287Z,13.87
2018-08-04T01:19:02.980Z,15.33
2018-08-04T01:21:31.663Z,14.13
2018-08-04T01:24:00.546Z,13.97
2018-08-04T01:26:29.235Z,13.93
2018-08-04T01:28:57.878Z,13.90
2018-08-04T01:31:26.520Z,14.63
2018-08-04T01:33:55.172Z,13.97
2018-08-04T01:36:23.814Z,13.50
2018-08-04T01:38:52.479Z,13.30
2018-08-04T01:41:21.150Z,13.60
2018-08-04T01:43:50.063Z,13.67
2018-08-04T01:46:18.742Z,14.53
2018-08-04T01:48:47.462Z,13.97
2018-08-04T01:51:16.218Z,14.40
2018-08-04T01:53:44.991Z,14.87
2018-08-04T01:56:13.608Z,14.60
2018-08-04T01:58:42.273Z,15.00
2018-08-04T02:01:11.007Z,14.07
2018-08-04T02:03:39.650Z,14.00
2018-08-04T02:06:08.342Z,14.00
2018-08-04T02:08:37.016Z,14.70
2018-08-04T02:11:05.649Z,13.77
2018-08-04T02:13:34.376Z,13.60
2018-08-04T02:16:03.018Z,13.37
2018-08-04T02:18:31.650Z,13.77
2018-08-04T02:21:00.382Z,13.43
2018-08-04T02:23:29.078Z,14.60
2018-08-04T02:25:57.989Z,14.07
2018-08-04T02:28:26.668Z,13.17
2018-08-04T02:30:55.499Z,13.57
2018-08-04T02:33:24.127Z,13.70
2018-08-04T02:35:52.787Z,13.07
2018-08-04T02:38:21.442Z,13.93
2018-08-04T02:40:50.089Z,14.50
2018-08-04T02:43:18.758Z,14.30
2018-08-04T02:45:47.421Z,14.10
2018-08-04T02:48:16.611Z,14.43
2018-08-04T02:50:45.281Z,15.23
2018-08-04T02:53:14.211Z,15.27
2018-08-04T02:55:42.896Z,16.07
2018-08-04T02:58:11.600Z,15.83
2018-08-04T03:00:40.260Z,15.73
2018-08-04T03:03:09.027Z,14.13
2018-08-04T03:05:38.276Z,15.73
2018-08-04T03:08:07.579Z,15.80
2018-08-04T03:10:36.944Z,15.93
2018-08-04T03:13:05.636Z,16.30
2018-08-04T03:15:34.551Z,16.13
2018-08-04T03:18:03.195Z,16.33
2018-08-04T03:20:31.866Z,15.83
2018-08-04T03:23:01.272Z,16.20
2018-08-04T03:25:30.183Z,15.77
2018-08-04T03:27:59.113Z,15.50
2018-08-04T03:30:27.904Z,15.83
2018-08-04T03:32:56.887Z,16.17
2018-08-04T03:35:25.611Z,15.10
2018-08-04T03:37:54.313Z,14.43
2018-08-04T03:40:22.930Z,14.17
2018-08-04T03:42:51.602Z,14.30
2018-08-04T03:45:20.594Z,14.47
2018-08-04T03:47:49.247Z,14.43
2018-08-04T03:50:18.191Z,15.47
2018-08-04T03:52:46.866Z,16.80
2018-08-04T03:55:15.587Z,15.90
2018-08-04T03:57:44.843Z,15.23
2018-08-04T04:00:13.664Z,15.00
2018-08-04T04:02:42.634Z,14.63
2018-08-04T04:05:11.317Z,14.70
2018-08-04T04:07:40.029Z,16.13
2018-08-04T04:10:08.718Z,16.60
2018-08-04T04:12:37.448Z,15.90
2018-08-04T04:15:06.920Z,14.20
2018-08-04T04:17:39.756Z,15.30
2018-08-04T04:20:08.802Z,16.23
2018-08-04T04:22:37.472Z,15.63
2018-08-04T04:25:06.176Z,15.33
2018-08-04T04:27:34.957Z,15.77
2018-08-04T04:30:05.351Z,14.23
2018-08-04T04:32:34.400Z,14.90
2018-08-04T04:35:03.419Z,15.13
2018-08-04T04:37:32.468Z,15.43
2018-08-04T04:40:01.759Z,15.37
2018-08-04T04:42:30.999Z,15.93
2018-08-04T04:44:59.958Z,15.73
2018-08-04T04:47:29.142Z,16.43
2018-08-04T04:49:58.326Z,15.50
2018-08-04T04:52:27.588Z,15.17
2018-08-04T04:54:56.474Z,15.10
2018-08-04T04:57:25.346Z,15.17
2018-08-04T04:59:54.099Z,13.20
2018-08-04T05:02:22.818Z,13.17
2018-08-04T05:04:51.481Z,13.70
2018-08-04T05:07:20.102Z,12.97
2018-08-04T05:09:48.890Z,13.03
2018-08-04T05:12:17.814Z,11.80
2018-08-04T05:14:46.511Z,13.13
2018-08-04T05:17:15.466Z,12.57
2018-08-04T05:19:44.686Z,12.43
2018-08-04T05:22:13.866Z,12.43
2018-08-04T05:24:42.839Z,13.53
2018-08-04T05:27:11.500Z,13.70
2018-08-04T05:29:40.183Z,13.48
2018-08-04T05:32:09.406Z,13.45
2018-08-04T05:34:38.123Z,13.68
2018-08-04T05:37:07.078Z,13.65
2018-08-04T05:39:35.812Z,14.75
2018-08-04T05:42:04.786Z,15.13
2018-08-04T05:44:33.998Z,17.35
2018-08-04T05:47:02.630Z,14.50
2018-08-04T05:49:31.370Z,14.35
2018-08-04T05:52:00.370Z,15.03
2018-08-04T05:54:29.146Z,15.28
2018-08-04T05:56:58.334Z,14.98
2018-08-04T05:59:27.602Z,15.98
2018-08-04T06:01:56.407Z,16.97
2018-08-04T06:04:25.095Z,16.37
2018-08-04T06:06:53.791Z,16.75
2018-08-04T06:09:22.483Z,16.25
2018-08-04T06:11:51.452Z,17.37
2018-08-04T06:14:20.707Z,16.15
2018-08-04T06:16:49.671Z,16.80
2018-08-04T06:19:18.360Z,15.58
2018-08-04T06:21:47.029Z,16.35
2018-08-04T06:24:16.432Z,16.55
2018-08-04T06:26:45.053Z,15.80
2018-08-04T06:29:14.096Z,17.05
2018-08-04T06:31:42.837Z,16.17
2018-08-04T06:34:11.963Z,14.50
2018-08-04T06:36:41.170Z,17.17
2018-08-04T06:39:09.846Z,15.60
2018-08-04T06:41:38.802Z,16.75
2018-08-04T06:44:07.809Z,17.00
2018-08-04T06:46:36.755Z,18.17
2018-08-04T06:49:05.795Z,14.30
2018-08-04T06:51:35.536Z,12.70
2018-08-04T06:54:04.359Z,13.48
2018-08-04T06:56:33.303Z,14.28
2018-08-04T06:59:01.922Z,14.40
2018-08-04T07:01:30.588Z,14.90
2018-08-04T07:03:59.243Z,14.53
2018-08-04T07:06:27.862Z,12.28
2018-08-04T07:08:57.797Z,13.38
2018-08-04T07:11:27.227Z,12.78
2018-08-04T07:13:55.941Z,12.82
2018-08-04T07:16:24.888Z,13.35
2018-08-04T07:18:53.860Z,13.95
2018-08-04T07:21:22.544Z,12.53
2018-08-04T07:23:51.698Z,12.20
2018-08-04T07:26:20.894Z,11.78
2018-08-04T07:28:49.820Z,11.88
2018-08-04T07:31:18.450Z,11.25
2018-08-04T07:33:47.044Z,11.33
2018-08-04T07:36:15.687Z,11.38
2018-08-04T07:38:44.297Z,11.93
2018-08-04T07:41:12.907Z,12.30
2018-08-04T07:43:41.557Z,11.43
2018-08-04T07:46:10.280Z,11.45
2018-08-04T07:48:39.307Z,8.43
2018-08-04T07:51:08.199Z,8.65
2018-08-04T07:53:37.449Z,7.42
2018-08-04T07:56:06.520Z,7.30
2018-08-04T07:58:35.760Z,7.80
2018-08-04T08:01:04.910Z,8.15
2018-08-04T08:03:33.815Z,7.58
2018-08-04T08:06:02.397Z,8.90
2018-08-04T08:08:31.002Z,8.78
2018-08-04T08:10:59.614Z,7.37
2018-08-04T08:13:28.283Z,7.75
2018-08-04T08:15:56.919Z,7.55
2018-08-04T08:18:25.831Z,8.33
2018-08-04T08:20:54.439Z,10.18
2018-08-04T08:23:23.047Z,7.72
2018-08-04T08:26:16.658Z,7.83
2018-08-04T08:28:45.339Z,7.03
2018-08-04T08:31:14.020Z,8.03
2018-08-04T08:33:42.697Z,7.55
2018-08-04T08:36:11.367Z,7.58
2018-08-04T08:38:39.963Z,7.70
2018-08-04T08:41:08.908Z,8.40
2018-08-04T08:43:37.577Z,8.23
2018-08-04T08:46:06.188Z,7.67
2018-08-04T08:48:34.824Z,7.55
2018-08-04T08:51:03.443Z,7.70
2018-08-04T08:53:32.302Z,6.90
2018-08-04T08:56:00.718Z,7.42
2018-08-04T08:58:29.634Z,7.15
2018-08-04T09:00:58.259Z,6.95
2018-08-04T09:03:26.838Z,7.55
2018-08-04T09:05:55.544Z,7.40
2018-08-04T09:08:24.427Z,8.03
2018-08-04T09:10:53.053Z,6.80
2018-08-04T09:13:21.761Z,6.75
2018-08-04T09:15:50.372Z,6.70
2018-08-04T09:18:19.002Z,6.03
2018-08-04T09:20:47.583Z,5.08
2018-08-04T09:23:16.492Z,6.10
2018-08-04T09:25:45.132Z,5.35
2018-08-04T09:28:13.830Z,6.12
2018-08-04T09:30:42.774Z,5.17
2018-08-04T09:33:11.430Z,5.10
2018-08-04T09:35:40.077Z,5.30
2018-08-04T09:38:08.658Z,5.40
2018-08-04T09:40:37.483Z,6.25
2018-08-04T09:43:06.209Z,5.80
2018-08-04T09:45:34.918Z,6.22
2018-08-04T09:48:03.580Z,5.97
2018-08-04T09:50:32.192Z,5.42
2018-08-04T09:53:00.839Z,5.60
2018-08-04T09:55:29.450Z,5.75
2018-08-04T09:57:58.146Z,5.85
2018-08-04T10:00:27.615Z,5.15
2018-08-04T10:02:56.329Z,7.58
2018-08-04T10:05:24.956Z,5.60
2018-08-04T10:07:53.552Z,5.70
2018-08-04T10:10:22.169Z,5.12
2018-08-04T10:12:50.848Z,5.50
2018-08-04T10:15:19.766Z,5.53
2018-08-04T10:17:48.440Z,6.05
2018-08-04T10:20:17.110Z,5.83
2018-08-04T10:22:45.752Z,5.78
2018-08-04T10:25:14.431Z,6.12
2018-08-04T10:27:43.038Z,6.30
2018-08-04T10:30:12.317Z,5.62
2018-08-04T10:32:41.069Z,5.15
2018-08-04T10:35:09.848Z,5.25
2018-08-04T10:37:38.654Z,5.42
2018-08-04T10:40:07.430Z,5.03
2018-08-04T10:42:36.229Z,5.47
2018-08-04T10:45:05.776Z,6.70
2018-08-04T10:47:34.369Z,6.20
2018-08-04T10:50:03.036Z,5.35
2018-08-04T10:52:32.337Z,5.55
2018-08-04T10:55:00.980Z,5.40
2018-08-04T10:57:29.644Z,5.35
2018-08-04T10:59:58.288Z,6.15
2018-08-04T11:02:26.922Z,6.08
2018-08-04T11:04:55.528Z,5.70
2018-08-04T11:07:24.277Z,5.65
2018-08-04T11:09:52.967Z,6.37
2018-08-04T11:12:21.583Z,5.87
2018-08-04T11:14:50.272Z,5.75
2018-08-04T11:17:18.909Z,5.72
2018-08-04T11:19:47.527Z,5.33
2018-08-04T11:22:16.595Z,5.53
2018-08-04T11:24:45.212Z,5.25
2018-08-04T11:27:13.809Z,6.08
2018-08-04T11:29:42.464Z,5.80
2018-08-04T11:32:11.078Z,5.78
2018-08-04T11:34:39.699Z,5.85
2018-08-04T11:37:08.324Z,5.60
2018-08-04T11:39:36.938Z,5.55
2018-08-04T11:42:05.610Z,5.70
2018-08-04T11:44:34.267Z,5.90
2018-08-04T11:47:02.846Z,5.55
2018-08-04T11:49:31.790Z,5.33
2018-08-04T11:52:00.427Z,5.87
2018-08-04T11:54:29.097Z,6.05
2018-08-04T11:56:57.728Z,6.25
2018-08-04T11:59:26.651Z,5.42
2018-08-04T12:01:55.286Z,5.75
2018-08-04T12:04:23.932Z,5.50
2018-08-04T12:06:52.552Z,5.40
2018-08-04T12:09:21.173Z,5.20
2018-08-04T12:11:49.838Z,5.45
2018-08-04T12:14:18.519Z,6.00
2018-08-04T12:16:47.277Z,6.15
2018-08-04T12:19:15.907Z,5.70
2018-08-04T12:21:44.607Z,5.50
2018-08-04T12:24:13.288Z,5.67
2018-08-04T12:26:41.948Z,5.42
2018-08-04T12:29:10.943Z,5.97
2018-08-04T12:31:40.278Z,5.62
2018-08-04T12:34:09.112Z,6.67
2018-08-04T12:36:37.993Z,5.90
2018-08-04T12:39:09.197Z,5.72
2018-08-04T12:41:38.229Z,5.42
2018-08-04T12:44:07.584Z,5.45
2018-08-04T12:46:36.350Z,5.75
2018-08-04T12:49:04.966Z,5.20
2018-08-04T12:51:33.571Z,5.17
2018-08-04T12:54:02.413Z,5.70
2018-08-04T12:56:31.074Z,5.80
2018-08-04T12:58:59.881Z,5.58
2018-08-04T13:01:28.484Z,5.95
2018-08-04T13:03:57.136Z,5.83
2018-08-04T13:06:25.902Z,5.75
2018-08-04T13:08:54.603Z,5.90
2018-08-04T13:11:23.928Z,5.90
2018-08-04T13:13:52.807Z,6.08
2018-08-04T13:16:21.517Z,8.90
2018-08-04T13:18:50.201Z,13.68
2018-08-04T13:21:18.930Z,6.72
2018-08-04T13:23:47.608Z,5.65
2018-08-04T13:26:16.495Z,6.35
2018-08-04T13:28:45.421Z,6.20
2018-08-04T13:31:14.423Z,5.87
2018-08-04T13:33:43.136Z,5.62
2018-08-04T13:36:11.880Z,6.08
2018-08-04T13:38:40.584Z,6.25
2018-08-04T13:41:09.349Z,6.40
2018-08-04T13:43:38.344Z,6.75
2018-08-04T13:46:07.140Z,6.03
2018-08-04T13:48:36.854Z,6.15
2018-08-04T13:51:05.860Z,6.50
2018-08-04T13:53:34.523Z,6.45
2018-08-04T13:56:04.156Z,5.90
2018-08-04T13:58:32.841Z,6.85
2018-08-04T14:01:01.623Z,6.45
2018-08-04T14:03:30.353Z,6.08
2018-08-04T14:05:59.105Z,6.08
2018-08-04T14:08:27.938Z,8.00
2018-08-04T14:10:56.658Z,6.58
2018-08-04T14:13:25.606Z,6.42
2018-08-04T14:15:54.313Z,5.83
2018-08-04T14:18:22.988Z,5.97
2018-08-04T14:20:51.631Z,10.72
2018-08-04T14:23:20.245Z,6.62
2018-08-04T14:25:48.867Z,7.62
2018-08-04T14:28:17.641Z,5.85
2018-08-04T14:30:46.565Z,6.65
2018-08-04T14:33:15.238Z,5.22
2018-08-04T14:35:43.863Z,7.78
2018-08-04T14:38:12.551Z,7.58
2018-08-04T14:40:41.211Z,5.20
2018-08-04T14:43:09.847Z,7.67
2018-08-04T14:45:38.795Z,9.30
2018-08-04T14:48:07.423Z,6.53
2018-08-04T14:50:36.204Z,6.95
2018-08-04T14:53:04.915Z,6.90
2018-08-04T14:55:33.598Z,7.75
2018-08-04T14:58:02.264Z,7.62
2018-08-04T15:00:30.962Z,7.10
2018-08-04T15:02:59.595Z,6.67
2018-08-04T15:05:28.244Z,5.90
2018-08-04T15:07:56.895Z,5.95
2018-08-04T15:10:25.604Z,6.50
2018-08-04T15:12:54.210Z,6.40
2018-08-04T15:15:22.832Z,6.23
2018-08-04T15:17:51.762Z,5.57
2018-08-04T15:20:20.699Z,5.50
2018-08-04T15:22:49.578Z,7.63
2018-08-04T15:25:18.202Z,11.70
2018-08-04T15:27:47.517Z,5.93
2018-08-04T15:30:16.282Z,8.30
2018-08-04T15:32:45.159Z,6.00
2018-08-04T15:35:14.333Z,5.60
2018-08-04T15:37:43.291Z,7.10
2018-08-04T15:40:12.231Z,6.60
2018-08-04T15:42:41.062Z,8.20
2018-08-04T15:45:09.802Z,9.47
2018-08-04T15:47:38.585Z,6.10
2018-08-04T15:50:07.447Z,6.17
2018-08-04T15:52:36.228Z,6.67
2018-08-04T15:55:05.332Z,6.77
2018-08-04T15:57:34.291Z,6.90
2018-08-04T16:00:02.949Z,7.00
2018-08-04T16:02:31.729Z,7.23
2018-08-04T16:05:00.439Z,6.50
2018-08-04T16:07:30.015Z,6.60
2018-08-04T16:09:59.022Z,7.20
2018-08-04T16:12:27.944Z,6.20
2018-08-04T16:14:56.607Z,6.77
2018-08-04T16:17:25.500Z,6.53
2018-08-04T16:19:54.555Z,6.60
2018-08-04T16:22:23.360Z,6.27
2018-08-04T16:24:52.293Z,5.87
2018-08-04T16:27:20.911Z,5.90
2018-08-04T16:29:49.545Z,5.77
2018-08-04T16:32:18.184Z,6.20
2018-08-04T16:34:46.815Z,6.53
2018-08-04T16:37:15.742Z,6.33
2018-08-04T16:39:44.410Z,6.60
2018-08-04T16:42:13.031Z,6.33
2018-08-04T16:44:42.023Z,6.73
2018-08-04T16:47:10.733Z,6.93
2018-08-04T16:49:39.344Z,7.73
2018-08-04T16:52:08.304Z,6.37
2018-08-04T16:54:36.915Z,8.80
2018-08-04T16:57:05.650Z,7.20
2018-08-04T16:59:34.331Z,6.53
2018-08-04T17:02:02.963Z,6.27
2018-08-04T17:04:31.980Z,8.27
2018-08-04T17:07:00.604Z,6.37
2018-08-04T17:09:29.194Z,5.67
2018-08-04T17:11:57.891Z,5.97
2018-08-04T17:14:26.575Z,6.43
2018-08-04T17:16:55.251Z,7.17
2018-08-04T17:19:23.948Z,6.27
2018-08-04T17:21:52.693Z,7.90
2018-08-04T17:24:21.280Z,6.00
2018-08-04T17:26:50.347Z,7.20
2018-08-04T17:29:19.163Z,6.10
2018-08-04T17:31:47.818Z,5.90
2018-08-04T17:34:16.522Z,5.90
2018-08-04T17:36:45.119Z,6.20
2018-08-04T17:39:13.733Z,6.23
2018-08-04T17:41:42.332Z,6.30
2018-08-04T17:44:10.991Z,6.03
2018-08-04T17:46:39.587Z,6.60
2018-08-04T17:49:08.210Z,6.30
2018-08-04T17:51:36.859Z,6.67
2018-08-04T17:54:05.556Z,6.10
2018-08-04T17:56:34.199Z,6.53
2018-08-04T17:59:02.834Z,6.60
2018-08-04T18:01:31.420Z,6.17
2018-08-04T18:04:00.117Z,6.27
2018-08-04T18:06:28.736Z,8.63
2018-08-04T18:08:57.462Z,8.77
2018-08-04T18:11:26.196Z,14.90
2018-08-04T18:13:54.863Z,9.80
2018-08-04T18:16:23.476Z,8.63
2018-08-04T18:18:52.112Z,7.07
2018-08-04T18:21:20.778Z,7.27
2018-08-04T18:23:49.411Z,8.10
2018-08-04T18:26:18.033Z,8.63
2018-08-04T18:28:46.707Z,8.97
2018-08-04T18:31:15.318Z,6.40
2018-08-04T18:33:43.908Z,6.17
2018-08-04T18:36:12.540Z,5.90
2018-08-04T18:38:41.153Z,6.57
2018-08-04T18:41:09.862Z,7.33
2018-08-04T18:43:38.469Z,9.27
2018-08-04T18:46:07.128Z,8.13
2018-08-04T18:48:35.740Z,8.87
2018-08-04T18:51:04.388Z,10.67
2018-08-04T18:53:33.054Z,7.90
2018-08-04T18:56:01.670Z,8.30
2018-08-04T18:58:30.262Z,7.80
2018-08-04T19:00:58.981Z,8.17
2018-08-04T19:03:27.616Z,8.30
2018-08-04T19:05:56.222Z,8.50
2018-08-04T19:08:24.862Z,10.10
2018-08-04T19:10:53.589Z,8.70
2018-08-04T19:13:22.219Z,10.10
2018-08-04T19:15:50.843Z,9.50
2018-08-04T19:18:19.426Z,8.90
2018-08-04T19:20:48.090Z,9.20
2018-08-04T19:23:16.723Z,10.93
2018-08-04T19:25:45.400Z,11.23
2018-08-04T19:28:14.031Z,11.87
2018-08-04T19:30:42.710Z,9.17
2018-08-04T19:33:11.326Z,9.77
2018-08-04T19:35:39.952Z,8.90
2018-08-04T19:38:08.602Z,9.60
2018-08-04T19:40:37.246Z,8.87
2018-08-04T19:43:06.165Z,10.37
2018-08-04T19:45:34.780Z,9.43
2018-08-04T19:48:03.421Z,8.73
2018-08-04T19:50:32.112Z,9.93
2018-08-04T19:53:00.740Z,9.97
2018-08-04T19:55:29.520Z,9.27
2018-08-04T19:57:58.160Z,10.23
2018-08-04T20:00:26.788Z,9.67
2018-08-04T20:02:55.362Z,9.70
2018-08-04T20:05:23.975Z,8.97
2018-08-04T20:07:52.644Z,8.97
2018-08-04T20:10:21.225Z,10.13
2018-08-04T20:12:49.897Z,9.10
2018-08-04T20:15:18.656Z,9.20
2018-08-04T20:17:47.454Z,8.07
2018-08-04T20:20:16.128Z,8.47
2018-08-04T20:22:44.759Z,8.23
2018-08-04T20:25:13.380Z,7.97
2018-08-04T20:27:41.970Z,7.87
2018-08-04T20:30:10.610Z,8.80
2018-08-04T20:32:39.211Z,7.77
2018-08-04T20:35:07.830Z,8.00
2018-08-04T20:37:36.459Z,8.37
2018-08-04T20:40:05.291Z,8.97
2018-08-04T20:42:34.043Z,9.23
2018-08-04T20:45:02.692Z,9.13
2018-08-04T20:47:31.352Z,9.50
2018-08-04T20:50:00.000Z,11.37
2018-08-04T20:52:28.689Z,10.53
2018-08-04T20:54:57.364Z,8.07
2018-08-04T20:57:26.051Z,9.67
2018-08-04T20:59:54.644Z,8.77
2018-08-04T21:02:23.311Z,8.50
2018-08-04T21:04:51.957Z,9.03
2018-08-04T21:07:20.684Z,9.87
2018-08-04T21:09:49.382Z,10.20
2018-08-04T21:12:18.004Z,9.70
2018-08-04T21:14:46.724Z,9.20
2018-08-04T21:17:15.408Z,9.67
2018-08-04T21:19:44.076Z,10.27
2018-08-04T21:22:12.695Z,10.50
2018-08-04T21:24:41.359Z,10.53
2018-08-04T21:27:10.001Z,10.50
2018-08-04T21:29:38.718Z,10.90
2018-08-04T21:32:07.349Z,13.20
2018-08-04T21:34:36.100Z,10.80
2018-08-04T21:37:04.793Z,11.37
2018-08-04T21:39:33.475Z,12.20
2018-08-04T21:42:02.102Z,11.40
2018-08-04T21:44:30.775Z,13.70
2018-08-04T21:46:59.459Z,11.27
2018-08-04T21:49:28.207Z,13.27
2018-08-04T21:51:56.808Z,12.73
2018-08-04T21:54:25.499Z,11.97
2018-08-04T21:56:54.125Z,11.90
2018-08-04T21:59:22.772Z,11.93
2018-08-04T22:01:54.948Z,13.93
2018-08-04T22:04:23.564Z,12.13
2018-08-04T22:08:03.846Z,12.47
2018-08-04T22:10:32.539Z,12.80
2018-08-04T22:13:01.315Z,13.40
2018-08-04T22:15:29.990Z,12.20
2018-08-04T22:17:58.747Z,12.63
2018-08-04T22:20:27.860Z,13.30
2018-08-04T22:22:56.512Z,11.90
2018-08-04T22:25:27.334Z,12.27
2018-08-04T22:27:56.539Z,11.87
2018-08-04T22:30:25.487Z,12.23
2018-08-04T22:32:54.187Z,12.23
2018-08-04T22:35:23.126Z,11.50
2018-08-04T22:37:52.239Z,11.47
2018-08-04T22:40:21.626Z,11.50
2018-08-04T22:42:50.270Z,11.10
2018-08-04T22:46:08.195Z,9.97
2018-08-04T22:48:36.946Z,9.10
2018-08-04T22:51:05.619Z,8.50
2018-08-04T22:53:34.423Z,8.70
2018-08-04T22:56:03.068Z,9.17
2018-08-04T22:58:31.698Z,8.50
2018-08-04T23:01:00.322Z,8.67
2018-08-04T23:03:28.974Z,7.80
2018-08-04T23:05:57.611Z,8.90
2018-08-04T23:08:26.236Z,8.67
2018-08-04T23:10:54.944Z,8.77
2018-08-04T23:13:23.643Z,8.10
2018-08-04T23:15:52.303Z,8.50
2018-08-04T23:18:20.926Z,7.63
2018-08-04T23:20:49.594Z,8.13
2018-08-04T23:23:18.271Z,8.47
2018-08-04T23:25:46.896Z,8.33
2018-08-04T23:28:15.502Z,7.97
2018-08-04T23:30:44.130Z,7.37
2018-08-04T23:33:12.766Z,7.80
2018-08-04T23:35:41.346Z,8.43
2018-08-04T23:38:10.030Z,8.70
2018-08-04T23:40:38.634Z,8.20
2018-08-04T23:43:07.374Z,7.90
2018-08-04T23:45:35.993Z,7.87
2018-08-04T23:48:04.635Z,8.17
2018-08-04T23:50:33.354Z,7.80
2018-08-04T23:53:02.020Z,7.53
2018-08-04T23:55:30.874Z,7.90
2018-08-04T23:57:59.506Z,7.37
